Time;durP1;ratioP1;P1;durP2;ratioP2;P2;SDS_P1;SDS_P2;PMS_P1;PMS_P2;Temp;Humidity;BMP_temperature;BMP_pressure;BME280_temperature;BME280_humidity;BME280_pressure;Samples;Min_cycle;Max_cycle;Signal;HPM_P1;HPM_P2
2023/04/13 00:00:43;;;;;;;;;;;9.90;99.90;;;;;;7332226;19;108850;-68
2023/04/13 00:03:11;;;;;;;;;;;10.00;99.90;;;;;;7337365;19;109022;-67
2023/04/13 00:05:38;;;;;;;;;;;10.00;99.90;;;;;;7330987;19;109350;-67
2023/04/13 00:08:06;;;;;;;;;;;10.00;99.90;;;;;;7332421;19;108642;-67
2023/04/13 00:10:35;;;;;;;;;;;10.00;99.90;;;;;;7330386;19;109521;-67
2023/04/13 00:13:05;;;;;;;;;;;10.00;99.90;;;;;;7333177;19;109679;-68
2023/04/13 00:15:35;;;;;;;;;;;9.90;99.90;;;;;;7338225;19;110194;-68
2023/04/13 00:18:02;;;;;;;;;;;9.90;99.90;;;;;;7338905;19;110884;-69
2023/04/13 00:20:30;;;;;;;;;;;9.80;99.90;;;;;;7338592;19;108863;-71
2023/04/13 00:22:57;;;;;;;;;;;9.80;99.90;;;;;;7338275;19;109261;-67
2023/04/13 00:25:24;;;;;;;;;;;9.80;99.90;;;;;;7340835;19;109137;-67
2023/04/13 00:27:53;;;;;;;;;;;9.80;99.90;;;;;;7339960;19;108816;-67
2023/04/13 00:30:21;;;;;;;;;;;9.70;99.90;;;;;;7338587;19;109332;-67
2023/04/13 00:32:48;;;;;;;;;;;9.70;99.90;;;;;;7337480;19;108883;-67
2023/04/13 00:35:17;;;;;;;;;;;9.70;99.90;;;;;;7339007;19;109015;-65
2023/04/13 00:37:47;;;;;;;;;;;9.80;99.90;;;;;;7335823;19;110156;-67
2023/04/13 00:40:15;;;;;;;;;;;9.70;99.90;;;;;;7338290;19;108445;-67
2023/04/13 00:42:43;;;;;;;;;;;9.80;99.90;;;;;;7338247;19;108632;-67
2023/04/13 00:45:12;;;;;;;;;;;9.80;99.90;;;;;;7337736;19;110342;-67
2023/04/13 00:47:40;;;;;;;;;;;9.70;99.90;;;;;;7342961;19;108638;-67
2023/04/13 00:50:08;;;;;;;;;;;9.80;99.90;;;;;;7337382;19;109017;-68
2023/04/13 00:52:39;;;;;;;;;;;9.80;99.90;;;;;;7333145;19;109456;-67
2023/04/13 00:55:06;;;;;;;;;;;9.70;99.90;;;;;;7335274;19;110095;-73
2023/04/13 00:57:34;;;;;;;;;;;9.70;99.90;;;;;;7336617;19;109664;-68
2023/04/13 01:00:11;;;;;;;;;;;9.70;99.90;;;;;;7337906;19;109139;-68
2023/04/13 01:02:42;;;;;;;;;;;9.70;99.90;;;;;;7332786;19;109161;-68
2023/04/13 01:05:14;;;;;;;;;;;9.70;99.90;;;;;;7334095;19;110388;-68
2023/04/13 01:07:47;;;;;;;;;;;9.70;99.90;;;;;;7337813;19;108417;-67
2023/04/13 01:10:15;;;;;;;;;;;9.70;99.90;;;;;;7341018;19;108356;-68
2023/04/13 01:12:42;;;;;;;;;;;9.70;99.90;;;;;;7337923;19;109125;-69
2023/04/13 01:15:11;;;;;;;;;;;9.70;99.90;;;;;;7334945;19;108574;-69
2023/04/13 01:17:40;;;;;;;;;;;9.70;99.90;;;;;;7336403;19;110513;-68
2023/04/13 01:20:10;;;;;;;;;;;9.70;99.90;;;;;;7337288;19;109151;-68
2023/04/13 01:22:40;;;;;;;;;;;9.70;99.90;;;;;;7336507;19;110186;-69
2023/04/13 01:25:20;;;;;;;;;;;9.60;99.90;;;;;;7334112;19;109578;-69
2023/04/13 01:28:20;;;;;;;;;;;9.60;99.90;;;;;;7335617;19;109294;-69
2023/04/13 01:30:48;;;;;;;;;;;9.60;99.90;;;;;;7338432;19;110529;-69
2023/04/13 01:33:15;;;;;;;;;;;9.50;99.90;;;;;;7332054;19;110322;-68
2023/04/13 01:35:43;;;;;;;;;;;9.50;99.90;;;;;;7333311;19;109643;-68
2023/04/13 01:38:11;;;;;;;;;;;9.60;99.90;;;;;;7327944;19;109599;-69
2023/04/13 01:40:40;;;;;;;;;;;9.60;99.90;;;;;;7332556;19;108664;-68
2023/04/13 01:43:07;;;;;;;;;;;9.50;99.90;;;;;;7332534;19;109132;-68
2023/04/13 01:45:56;;;;;;;;;;;9.60;99.90;;;;;;7327955;19;109755;-69
2023/04/13 01:48:26;;;;;;;;;;;9.60;99.90;;;;;;7332879;19;108581;-69
2023/04/13 01:50:57;;;;;;;;;;;9.60;99.90;;;;;;7334629;19;108680;-68
2023/04/13 01:53:27;;;;;;;;;;;9.60;99.90;;;;;;7339532;19;110229;-68
2023/04/13 01:55:54;;;;;;;;;;;9.60;99.90;;;;;;7328163;19;110596;-68
2023/04/13 01:58:27;;;;;;;;;;;9.60;99.90;;;;;;7334958;19;113361;-68
2023/04/13 02:00:54;;;;;;;;;;;9.50;99.90;;;;;;7334994;19;109750;-68
2023/04/13 02:03:21;;;;;;;;;;;9.50;99.90;;;;;;7328834;19;109743;-68
2023/04/13 02:05:49;;;;;;;;;;;9.50;99.90;;;;;;7332059;19;109144;-68
2023/04/13 02:08:19;;;;;;;;;;;9.40;99.90;;;;;;7336753;19;108628;-68
2023/04/13 02:10:46;;;;;;;;;;;9.40;99.90;;;;;;7333645;19;109070;-68
2023/04/13 02:13:13;;;;;;;;;;;9.50;99.90;;;;;;7336143;19;110380;-68
2023/04/13 02:15:40;;;;;;;;;;;9.50;99.90;;;;;;7339637;19;108543;-68
2023/04/13 02:18:07;;;;;;;;;;;9.50;99.90;;;;;;7332488;19;111109;-69
2023/04/13 02:20:41;;;;;;;;;;;9.50;99.90;;;;;;7332621;19;108507;-68
2023/04/13 02:23:14;;;;;;;;;;;9.50;99.90;;;;;;7335092;19;109733;-68
2023/04/13 02:25:42;;;;;;;;;;;9.50;99.90;;;;;;7331956;19;116807;-69
2023/04/13 02:28:12;;;;;;;;;;;9.40;99.90;;;;;;7335924;19;108423;-68
2023/04/13 02:30:39;;;;;;;;;;;9.50;99.90;;;;;;7333026;19;109001;-69
2023/04/13 02:33:08;;;;;;;;;;;9.50;99.90;;;;;;7335611;19;112259;-68
2023/04/13 02:35:37;;;;;;;;;;;9.50;99.90;;;;;;7332792;19;108785;-69
2023/04/13 02:38:09;;;;;;;;;;;9.50;99.90;;;;;;7337295;19;109132;-69
2023/04/13 02:40:37;;;;;;;;;;;9.40;99.90;;;;;;7334387;19;109723;-69
2023/04/13 02:43:04;;;;;;;;;;;9.40;99.90;;;;;;7335921;19;110797;-69
2023/04/13 02:45:31;;;;;;;;;;;9.40;99.90;;;;;;7331251;19;109298;-69
2023/04/13 02:47:58;;;;;;;;;;;9.40;99.90;;;;;;7335780;19;109662;-68
2023/04/13 02:50:26;;;;;;;;;;;9.40;99.90;;;;;;7331329;19;109156;-69
2023/04/13 02:52:53;;;;;;;;;;;9.40;99.90;;;;;;7333235;19;112020;-76
2023/04/13 02:55:20;;;;;;;;;;;9.40;99.90;;;;;;7334606;19;108638;-79
2023/04/13 02:57:48;;;;;;;;;;;9.40;99.90;;;;;;7332854;19;108311;-76
2023/04/13 03:00:15;;;;;;;;;;;9.40;99.90;;;;;;7338071;19;109465;-74
2023/04/13 03:02:43;;;;;;;;;;;9.40;99.90;;;;;;7341398;19;108213;-90
2023/04/13 03:05:11;;;;;;;;;;;9.40;99.90;;;;;;7373250;19;109370;-88
2023/04/13 03:07:38;;;;;;;;;;;9.40;99.90;;;;;;7371996;19;109388;-87
2023/04/13 03:10:07;;;;;;;;;;;9.40;99.90;;;;;;7372350;19;109237;-89
2023/04/13 03:12:35;;;;;;;;;;;9.40;99.90;;;;;;7344417;19;109174;-89
2023/04/13 03:15:09;;;;;;;;;;;9.40;99.90;;;;;;7336978;19;118591;-87
2023/04/13 03:17:40;;;;;;;;;;;9.40;99.90;;;;;;7339766;19;111955;-88
2023/04/13 03:20:15;;;;;;;;;;;9.40;99.90;;;;;;7341057;19;110447;-87
2023/04/13 03:22:43;;;;;;;;;;;9.30;99.90;;;;;;7346819;19;108518;-89
2023/04/13 03:25:13;;;;;;;;;;;9.30;99.90;;;;;;7336499;19;113424;-89
2023/04/13 03:27:40;;;;;;;;;;;9.30;99.90;;;;;;7340240;19;108488;-89
2023/04/13 03:30:07;;;;;;;;;;;9.30;99.90;;;;;;7335894;19;111779;-89
2023/04/13 03:32:36;;;;;;;;;;;9.30;99.90;;;;;;7335902;19;112892;-67
2023/04/13 03:35:04;;;;;;;;;;;9.20;99.90;;;;;;7332017;19;108397;-67
2023/04/13 03:37:39;;;;;;;;;;;9.20;99.90;;;;;;7333021;19;113089;-67
2023/04/13 03:40:09;;;;;;;;;;;9.10;99.90;;;;;;7332853;19;110007;-67
2023/04/13 03:42:38;;;;;;;;;;;9.10;99.90;;;;;;7339103;19;109041;-76
2023/04/13 03:45:06;;;;;;;;;;;9.10;99.90;;;;;;7328285;19;111099;-70
2023/04/13 03:47:33;;;;;;;;;;;9.00;99.90;;;;;;7333831;19;108567;-73
2023/04/13 03:50:00;;;;;;;;;;;9.00;99.90;;;;;;7335713;19;110559;-68
2023/04/13 03:52:27;;;;;;;;;;;9.00;99.90;;;;;;7340185;19;109149;-67
2023/04/13 03:54:55;;;;;;;;;;;8.90;99.90;;;;;;7340912;19;109644;-67
2023/04/13 03:57:22;;;;;;;;;;;8.90;99.90;;;;;;7340021;19;108864;-68
2023/04/13 03:59:50;;;;;;;;;;;8.90;99.90;;;;;;7334679;19;109616;-67
2023/04/13 04:02:17;;;;;;;;;;;8.90;99.90;;;;;;7340315;19;109176;-67
2023/04/13 04:04:44;;;;;;;;;;;8.80;99.90;;;;;;7344065;19;108955;-67
2023/04/13 04:07:11;;;;;;;;;;;8.80;99.90;;;;;;7338845;19;108729;-68
2023/04/13 04:09:39;;;;;;;;;;;8.80;99.90;;;;;;7337147;19;110103;-69
2023/04/13 04:12:06;;;;;;;;;;;8.80;99.90;;;;;;7338711;19;109581;-68
2023/04/13 04:14:33;;;;;;;;;;;8.80;99.90;;;;;;7338664;19;109100;-68
2023/04/13 04:17:00;;;;;;;;;;;8.70;99.90;;;;;;7336520;19;108894;-71
2023/04/13 04:19:27;;;;;;;;;;;8.70;99.90;;;;;;7338136;19;109760;-68
2023/04/13 04:21:56;;;;;;;;;;;8.70;99.90;;;;;;7337963;19;109182;-67
2023/04/13 04:24:26;;;;;;;;;;;8.70;99.90;;;;;;7338066;19;108760;-68
2023/04/13 04:26:54;;;;;;;;;;;8.60;99.90;;;;;;7344838;19;109611;-67
2023/04/13 04:29:32;;;;;;;;;;;8.60;99.90;;;;;;7337989;19;111785;-67
2023/04/13 04:32:04;;;;;;;;;;;8.60;99.90;;;;;;7338465;19;109473;-67
2023/04/13 04:34:31;;;;;;;;;;;8.60;99.90;;;;;;7338302;19;110482;-67
2023/04/13 04:36:58;;;;;;;;;;;8.60;99.90;;;;;;7336475;19;108835;-67
2023/04/13 04:39:31;;;;;;;;;;;8.50;99.90;;;;;;7339318;19;109666;-67
2023/04/13 04:42:04;;;;;;;;;;;8.50;99.90;;;;;;7336604;19;110265;-68
2023/04/13 04:44:31;;;;;;;;;;;8.50;99.90;;;;;;7335657;19;110703;-69
2023/04/13 04:47:01;;;;;;;;;;;8.50;99.90;;;;;;7339948;19;109293;-67
2023/04/13 04:49:28;;;;;;;;;;;8.50;99.90;;;;;;7341948;19;108817;-67
2023/04/13 04:51:56;;;;;;;;;;;8.50;99.90;;;;;;7337900;19;109941;-67
2023/04/13 04:54:24;;;;;;;;;;;8.50;99.90;;;;;;7337253;19;108460;-68
2023/04/13 04:56:51;;;;;;;;;;;8.50;99.90;;;;;;7338849;19;108566;-67
2023/04/13 04:59:18;;;;;;;;;;;8.40;99.90;;;;;;7334794;19;109618;-67
2023/04/13 05:01:45;;;;;;;;;;;8.40;99.90;;;;;;7336945;19;109471;-67
2023/04/13 05:04:13;;;;;;;;;;;8.40;99.90;;;;;;7338367;19;109094;-66
2023/04/13 05:06:40;;;;;;;;;;;8.40;99.90;;;;;;7335333;19;109225;-67
2023/04/13 05:09:07;;;;;;;;;;;8.60;99.90;;;;;;7337454;19;109635;-67
2023/04/13 05:11:35;;;;;;;;;;;8.80;99.90;;;;;;7341327;19;109586;-67
2023/04/13 05:14:02;;;;;;;;;;;8.70;99.90;;;;;;7336100;19;108797;-67
2023/04/13 05:16:30;;;;;;;;;;;8.60;99.90;;;;;;7335476;19;112048;-67
2023/04/13 05:18:57;;;;;;;;;;;8.60;99.90;;;;;;7336857;19;110862;-67
2023/04/13 05:21:25;;;;;;;;;;;8.60;99.90;;;;;;7337056;19;108658;-67
2023/04/13 05:23:53;;;;;;;;;;;8.50;99.90;;;;;;7337001;19;108862;-69
2023/04/13 05:26:20;;;;;;;;;;;8.50;99.90;;;;;;7335149;19;111290;-67
2023/04/13 05:28:47;;;;;;;;;;;8.50;99.90;;;;;;7336033;19;108599;-67
2023/04/13 05:31:14;;;;;;;;;;;8.50;99.90;;;;;;7339311;19;108453;-67
2023/04/13 05:33:41;;;;;;;;;;;8.60;99.90;;;;;;7341430;19;109778;-67
2023/04/13 05:36:09;;;;;;;;;;;8.60;99.90;;;;;;7337021;19;108621;-67
2023/04/13 05:38:35;;;;;;;;;;;8.60;99.90;;;;;;7333612;19;109704;-67
2023/04/13 05:41:02;;;;;;;;;;;8.60;99.90;;;;;;7339399;19;108713;-67
2023/04/13 05:43:30;;;;;;;;;;;8.60;99.90;;;;;;7335966;19;112249;-67
2023/04/13 05:45:57;;;;;;;;;;;8.60;99.90;;;;;;7338183;19;109169;-67
2023/04/13 05:48:25;;;;;;;;;;;8.60;99.90;;;;;;7335888;19;109340;-67
2023/04/13 05:50:58;;;;;;;;;;;8.60;99.90;;;;;;7337824;19;108744;-67
2023/04/13 05:53:25;;;;;;;;;;;8.70;99.90;;;;;;7341392;19;109761;-67
2023/04/13 05:55:53;;;;;;;;;;;8.70;99.90;;;;;;7335454;19;111772;-67
2023/04/13 05:58:20;;;;;;;;;;;8.70;99.90;;;;;;7333473;19;109396;-67
2023/04/13 06:00:47;;;;;;;;;;;8.80;99.90;;;;;;7336153;19;109391;-67
2023/04/13 06:03:15;;;;;;;;;;;8.80;99.90;;;;;;7336847;19;109223;-67
2023/04/13 06:05:43;;;;;;;;;;;8.80;99.90;;;;;;7334935;19;109335;-66
2023/04/13 06:08:10;;;;;;;;;;;8.90;99.90;;;;;;7337850;19;109332;-67
2023/04/13 06:10:38;;;;;;;;;;;8.90;99.90;;;;;;7336184;19;108621;-67
2023/04/13 06:13:05;;;;;;;;;;;8.90;99.90;;;;;;7337647;19;110247;-67
2023/04/13 06:15:33;;;;;;;;;;;9.00;99.90;;;;;;7342064;19;108996;-67
2023/04/13 06:18:00;;;;;;;;;;;8.90;99.90;;;;;;7335027;19;110084;-66
2023/04/13 06:20:27;;;;;;;;;;;8.90;99.90;;;;;;7335569;19;108544;-67
2023/04/13 06:22:54;;;;;;;;;;;9.00;99.90;;;;;;7335523;19;109666;-67
2023/04/13 06:25:22;;;;;;;;;;;9.00;99.90;;;;;;7336035;19;110447;-67
2023/04/13 06:27:49;;;;;;;;;;;9.10;99.90;;;;;;7336156;19;108479;-67
2023/04/13 06:30:16;;;;;;;;;;;9.10;99.90;;;;;;7334534;19;108526;-67
2023/04/13 06:32:43;;;;;;;;;;;9.10;99.90;;;;;;7334856;19;110608;-66
2023/04/13 06:35:10;;;;;;;;;;;9.20;99.90;;;;;;7335617;19;108723;-67
2023/04/13 06:37:38;;;;;;;;;;;9.30;99.90;;;;;;7341712;19;108899;-67
2023/04/13 06:40:13;;;;;;;;;;;9.30;99.90;;;;;;7333830;19;110331;-67
2023/04/13 06:42:41;;;;;;;;;;;9.30;99.90;;;;;;7335093;19;109424;-67
2023/04/13 06:45:08;;;;;;;;;;;9.40;99.90;;;;;;7335746;19;110219;-67
2023/04/13 06:47:36;;;;;;;;;;;9.40;99.90;;;;;;7335207;19;108938;-67
2023/04/13 06:50:04;;;;;;;;;;;9.50;99.90;;;;;;7329972;19;109346;-67
2023/04/13 06:52:34;;;;;;;;;;;9.60;99.90;;;;;;7334584;19;109150;-67
2023/04/13 06:55:01;;;;;;;;;;;9.60;99.90;;;;;;7334070;19;111318;-67
2023/04/13 06:57:28;;;;;;;;;;;9.70;99.90;;;;;;7333969;19;108872;-67
2023/04/13 06:59:56;;;;;;;;;;;9.70;99.90;;;;;;7341171;19;110349;-67
2023/04/13 07:02:24;;;;;;;;;;;9.80;99.90;;;;;;7334058;19;108769;-66
2023/04/13 07:04:52;;;;;;;;;;;9.90;99.90;;;;;;7335825;19;109162;-67
2023/04/13 07:07:19;;;;;;;;;;;9.90;99.90;;;;;;7335029;19;108933;-67
2023/04/13 07:09:46;;;;;;;;;;;9.90;99.90;;;;;;7335664;19;110474;-67
2023/04/13 07:12:13;;;;;;;;;;;10.00;99.90;;;;;;7334496;19;109765;-69
2023/04/13 07:14:40;;;;;;;;;;;10.10;99.90;;;;;;7334958;19;108389;-70
2023/04/13 07:17:07;;;;;;;;;;;10.10;99.90;;;;;;7337319;19;108856;-72
2023/04/13 07:19:42;;;;;;;;;;;10.30;99.90;;;;;;7332685;19;110080;-67
2023/04/13 07:22:09;;;;;;;;;;;10.40;99.90;;;;;;7341814;19;108756;-67
2023/04/13 07:24:36;;;;;;;;;;;10.50;99.90;;;;;;7341344;19;109243;-67
2023/04/13 07:27:04;;;;;;;;;;;10.60;99.90;;;;;;7343437;19;109240;-67
2023/04/13 07:29:32;;;;;;;;;;;10.60;99.90;;;;;;7344082;19;112875;-67
2023/04/13 07:32:00;;;;;;;;;;;10.70;99.90;;;;;;7342625;19;109231;-67
2023/04/13 07:34:28;;;;;;;;;;;10.70;99.90;;;;;;7342372;19;109854;-67
2023/04/13 07:36:55;;;;;;;;;;;10.70;99.90;;;;;;7339715;19;108808;-66
2023/04/13 07:39:22;;;;;;;;;;;10.90;99.90;;;;;;7341729;19;109355;-68
2023/04/13 07:41:50;;;;;;;;;;;10.90;99.90;;;;;;7342860;19;108970;-67
2023/04/13 07:44:17;;;;;;;;;;;10.90;99.90;;;;;;7344670;19;109036;-66
2023/04/13 07:46:44;;;;;;;;;;;11.00;99.90;;;;;;7342123;19;109706;-68
2023/04/13 07:49:11;;;;;;;;;;;11.00;99.90;;;;;;7337948;19;109101;-70
2023/04/13 07:51:38;;;;;;;;;;;11.00;99.90;;;;;;7339708;19;109208;-76
2023/04/13 07:54:05;;;;;;;;;;;11.00;99.90;;;;;;7342842;19;109512;-77
2023/04/13 07:56:32;;;;;;;;;;;11.10;99.90;;;;;;7341727;19;114219;-69
2023/04/13 07:58:59;;;;;;;;;;;11.20;99.90;;;;;;7340439;19;109903;-67
2023/04/13 08:01:27;;;;;;;;;;;11.20;99.90;;;;;;7341665;19;108690;-67
2023/04/13 08:03:54;;;;;;;;;;;11.40;99.90;;;;;;7344804;19;111203;-69
2023/04/13 08:06:22;;;;;;;;;;;11.40;99.90;;;;;;7340678;19;110573;-67
2023/04/13 08:08:49;;;;;;;;;;;11.40;99.90;;;;;;7343690;19;109444;-67
2023/04/13 08:11:16;;;;;;;;;;;11.50;99.90;;;;;;7343370;19;109191;-67
2023/04/13 08:13:43;;;;;;;;;;;11.50;99.90;;;;;;7341447;19;109474;-67
2023/04/13 08:16:11;;;;;;;;;;;11.60;99.90;;;;;;7338675;19;109022;-67
2023/04/13 08:18:38;;;;;;;;;;;11.60;99.90;;;;;;7339276;19;109276;-67
2023/04/13 08:21:06;;;;;;;;;;;11.50;99.90;;;;;;7341254;19;109100;-67
2023/04/13 08:23:40;;;;;;;;;;;11.60;99.90;;;;;;7340927;19;112062;-66
2023/04/13 08:26:15;;;;;;;;;;;11.60;99.90;;;;;;7342329;19;109221;-67
2023/04/13 08:28:42;;;;;;;;;;;11.50;99.90;;;;;;7338317;19;111834;-66
2023/04/13 08:31:09;;;;;;;;;;;11.50;99.90;;;;;;7341295;19;110198;-66
2023/04/13 08:33:36;;;;;;;;;;;11.60;99.90;;;;;;7339437;19;109165;-66
2023/04/13 08:36:03;;;;;;;;;;;11.60;99.90;;;;;;7341000;19;108554;-66
2023/04/13 08:38:31;;;;;;;;;;;11.60;99.90;;;;;;7338620;19;109620;-66
2023/04/13 08:41:02;;;;;;;;;;;11.60;99.90;;;;;;7340980;19;112479;-66
2023/04/13 08:43:31;;;;;;;;;;;11.70;99.90;;;;;;7340088;19;108653;-66
2023/04/13 08:45:58;;;;;;;;;;;11.70;99.90;;;;;;7338073;19;111197;-66
2023/04/13 08:48:26;;;;;;;;;;;11.70;99.90;;;;;;7342871;19;110158;-66
2023/04/13 08:51:00;;;;;;;;;;;11.70;99.90;;;;;;7337748;19;110583;-66
2023/04/13 08:53:28;;;;;;;;;;;11.70;99.90;;;;;;7337304;19;110634;-68
2023/04/13 08:55:57;;;;;;;;;;;11.70;99.90;;;;;;7339448;19;108599;-69
2023/04/13 08:58:26;;;;;;;;;;;11.70;99.90;;;;;;7338300;19;109099;-68
2023/04/13 09:00:53;;;;;;;;;;;11.80;99.90;;;;;;7341438;19;108340;-67
2023/04/13 09:03:24;;;;;;;;;;;11.80;99.90;;;;;;7339034;19;109107;-68
2023/04/13 09:05:53;;;;;;;;;;;11.90;99.90;;;;;;7341003;19;110268;-67
2023/04/13 09:08:21;;;;;;;;;;;12.00;99.90;;;;;;7337812;19;108923;-67
2023/04/13 09:10:48;;;;;;;;;;;12.10;99.90;;;;;;7346717;19;109264;-69
2023/04/13 09:13:15;;;;;;;;;;;12.20;99.90;;;;;;7339062;19;108841;-68
2023/04/13 09:15:46;;;;;;;;;;;12.30;99.90;;;;;;7339272;19;109329;-67
2023/04/13 09:18:14;;;;;;;;;;;12.30;99.90;;;;;;7340189;19;108991;-68
2023/04/13 09:20:41;;;;;;;;;;;12.20;99.90;;;;;;7340311;19;108461;-66
2023/04/13 09:23:16;;;;;;;;;;;12.20;99.90;;;;;;7339031;19;108618;-66
2023/04/13 09:25:44;;;;;;;;;;;12.20;99.90;;;;;;7339859;19;109109;-66
2023/04/13 09:28:14;;;;;;;;;;;12.10;99.90;;;;;;7338149;19;108469;-66
2023/04/13 09:30:41;;;;;;;;;;;12.10;99.90;;;;;;7338814;19;108599;-68
2023/04/13 09:33:09;;;;;;;;;;;12.10;99.90;;;;;;7344281;19;109133;-66
2023/04/13 09:35:37;;;;;;;;;;;12.10;99.90;;;;;;7337342;19;108503;-65
2023/04/13 09:38:04;;;;;;;;;;;12.10;99.90;;;;;;7339897;19;109106;-66
2023/04/13 09:40:32;;;;;;;;;;;12.10;99.90;;;;;;7337531;19;108339;-66
2023/04/13 09:43:00;;;;;;;;;;;12.10;99.90;;;;;;7339187;19;111125;-66
2023/04/13 09:45:37;;;;;;;;;;;12.10;99.90;;;;;;7336362;19;109085;-66
2023/04/13 09:48:05;;;;;;;;;;;12.10;99.90;;;;;;7337512;19;109759;-66
2023/04/13 09:50:35;;;;;;;;;;;12.00;99.90;;;;;;7337077;19;109324;-67
2023/04/13 09:53:03;;;;;;;;;;;12.10;99.90;;;;;;7338982;19;110070;-66
2023/04/13 09:55:33;;;;;;;;;;;12.10;99.90;;;;;;7342905;19;110582;-66
2023/04/13 09:58:15;;;;;;;;;;;12.20;99.90;;;;;;7337691;19;109739;-66
2023/04/13 10:00:43;;;;;;;;;;;12.20;99.90;;;;;;7337080;19;110052;-66
2023/04/13 10:03:14;;;;;;;;;;;12.40;99.90;;;;;;7337865;19;108994;-66
2023/04/13 10:05:42;;;;;;;;;;;12.50;99.90;;;;;;7339879;19;111226;-66
2023/04/13 10:08:24;;;;;;;;;;;12.50;99.90;;;;;;7334534;19;108897;-67
2023/04/13 10:11:06;;;;;;;;;;;12.60;99.90;;;;;;7338091;19;109553;-66
2023/04/13 10:13:39;;;;;;;;;;;12.70;99.90;;;;;;7336863;19;109761;-66
2023/04/13 10:16:13;;;;;;;;;;;12.70;99.90;;;;;;7339476;19;109250;-66
2023/04/13 10:18:43;;;;;;;;;;;12.80;99.90;;;;;;7336283;19;109161;-66
2023/04/13 10:21:11;;;;;;;;;;;12.90;99.90;;;;;;7336942;19;109076;-67
2023/04/13 10:23:38;;;;;;;;;;;13.10;99.90;;;;;;7336861;19;108201;-67
2023/04/13 10:26:06;;;;;;;;;;;13.20;99.90;;;;;;7333926;19;109173;-66
2023/04/13 10:28:43;;;;;;;;;;;13.40;99.90;;;;;;7336329;19;108440;-66
2023/04/13 10:31:10;;;;;;;;;;;13.50;99.90;;;;;;7333439;19;109272;-67
2023/04/13 10:33:49;;;;;;;;;;;13.40;99.90;;;;;;7333747;19;110157;-67
2023/04/13 10:36:16;;;;;;;;;;;13.40;99.90;;;;;;7336336;19;110257;-66
2023/04/13 10:38:44;;;;;;;;;;;13.40;99.90;;;;;;7339663;19;108410;-66
2023/04/13 10:41:32;;;;;;;;;;;13.40;99.90;;;;;;7337803;19;108785;-66
2023/04/13 10:44:01;;;;;;;;;;;13.40;99.90;;;;;;7337768;19;108419;-66
2023/04/13 10:46:29;;;;;;;;;;;13.60;99.90;;;;;;7336071;19;110068;-66
2023/04/13 10:48:57;;;;;;;;;;;13.70;99.90;;;;;;7338397;19;108543;-67
2023/04/13 10:51:26;;;;;;;;;;;13.70;99.90;;;;;;7335158;19;108782;-67
2023/04/13 10:54:03;;;;;;;;;;;13.70;99.90;;;;;;7335806;19;111190;-67
2023/04/13 10:56:30;;;;;;;;;;;13.70;99.90;;;;;;7336223;19;108874;-63
2023/04/13 10:58:57;;;;;;;;;;;13.70;99.90;;;;;;7329073;19;112755;-64
2023/04/13 11:01:24;;;;;;;;;;;13.70;99.90;;;;;;7340470;19;109138;-63
2023/04/13 11:03:51;;;;;;;;;;;13.80;99.90;;;;;;7335203;19;109065;-64
2023/04/13 11:06:37;;;;;;;;;;;13.80;99.90;;;;;;7332129;19;109173;-64
2023/04/13 11:09:05;;;;;;;;;;;13.70;99.90;;;;;;7336292;19;108864;-64
2023/04/13 11:11:35;;;;;;;;;;;13.80;99.90;;;;;;7333973;19;108671;-64
2023/04/13 11:14:02;;;;;;;;;;;13.90;99.90;;;;;;7336893;19;109206;-64
2023/04/13 11:16:29;;;;;;;;;;;14.00;99.90;;;;;;7334838;19;108829;-63
2023/04/13 11:19:02;;;;;;;;;;;13.90;99.90;;;;;;7339113;19;109392;-63
2023/04/13 11:21:34;;;;;;;;;;;13.80;99.90;;;;;;7332169;19;110490;-63
2023/04/13 11:24:01;;;;;;;;;;;13.80;99.90;;;;;;7340831;19;109639;-63
2023/04/13 11:26:33;;;;;;;;;;;13.90;99.90;;;;;;7332671;19;110923;-63
2023/04/13 11:29:01;;;;;;;;;;;14.00;99.90;;;;;;7335181;19;109553;-63
2023/04/13 11:31:37;;;;;;;;;;;14.20;99.90;;;;;;7336029;19;108867;-63
2023/04/13 11:34:05;;;;;;;;;;;14.40;99.90;;;;;;7334430;19;109249;-63
2023/04/13 11:36:32;;;;;;;;;;;14.60;99.90;;;;;;7334115;19;109308;-63
2023/04/13 11:39:04;;;;;;;;;;;14.60;99.90;;;;;;7334489;19;109464;-63
2023/04/13 11:41:32;;;;;;;;;;;14.70;99.90;;;;;;7335865;19;110075;-63
2023/04/13 11:44:00;;;;;;;;;;;14.70;99.90;;;;;;7336232;19;109191;-63
2023/04/13 11:46:28;;;;;;;;;;;15.00;99.90;;;;;;7339198;19;110659;-63
2023/04/13 11:48:55;;;;;;;;;;;15.30;99.90;;;;;;7335545;19;109931;-62
2023/04/13 11:51:23;;;;;;;;;;;15.40;99.90;;;;;;7335446;19;109127;-63
2023/04/13 11:53:50;;;;;;;;;;;15.40;99.90;;;;;;7335519;19;110004;-63
2023/04/13 11:56:18;;;;;;;;;;;15.60;99.90;;;;;;7333228;19;108825;-64
2023/04/13 11:58:48;;;;;;;;;;;15.70;99.90;;;;;;7331455;19;108777;-63
2023/04/13 12:01:15;;;;;;;;;;;15.90;99.90;;;;;;7334421;19;109098;-63
2023/04/13 12:03:52;;;;;;;;;;;16.10;99.90;;;;;;7330470;19;108400;-64
2023/04/13 12:06:39;;;;;;;;;;;16.20;99.90;;;;;;7333629;19;109163;-63
2023/04/13 12:09:08;;;;;;;;;;;16.40;99.90;;;;;;7335515;19;114547;-63
2023/04/13 12:11:41;;;;;;;;;;;16.50;99.90;;;;;;7338977;19;108461;-63
2023/04/13 12:14:19;;;;;;;;;;;16.60;99.90;;;;;;7341382;19;109342;-63
2023/04/13 12:17:09;;;;;;;;;;;16.60;99.90;;;;;;7341012;19;110253;-63
2023/04/13 12:19:57;;;;;;;;;;;16.70;99.90;;;;;;7339313;19;108337;-64
2023/04/13 12:22:39;;;;;;;;;;;16.60;99.90;;;;;;7338818;19;109139;-64
2023/04/13 12:25:12;;;;;;;;;;;16.60;99.90;;;;;;7339647;19;108475;-68
2023/04/13 12:27:40;;;;;;;;;;;16.60;99.80;;;;;;7339483;19;108629;-64
2023/04/13 12:30:14;;;;;;;;;;;16.40;99.90;;;;;;7344398;19;109108;-65
2023/04/13 12:32:42;;;;;;;;;;;16.30;99.00;;;;;;7339888;19;109559;-64
2023/04/13 12:35:10;;;;;;;;;;;16.30;99.70;;;;;;7338879;19;109043;-64
2023/04/13 12:37:43;;;;;;;;;;;16.40;98.60;;;;;;7342538;19;108987;-64
2023/04/13 12:45:43;;;;;;;;;;;16.60;99.10;;;;;;7333527;19;109585;-64
2023/04/13 12:48:10;;;;;;;;;;;16.60;98.70;;;;;;7339132;19;108806;-64
2023/04/13 12:50:37;;;;;;;;;;;16.70;98.60;;;;;;7338101;19;109603;-64
2023/04/13 12:53:04;;;;;;;;;;;16.50;99.00;;;;;;7344138;19;108853;-64
2023/04/13 12:55:31;;;;;;;;;;;16.70;99.50;;;;;;7336632;19;109769;-64
2023/04/13 12:57:58;;;;;;;;;;;16.80;99.00;;;;;;7338465;19;108863;-64
2023/04/13 13:00:25;;;;;;;;;;;16.90;97.90;;;;;;7339595;19;109367;-64
2023/04/13 13:02:52;;;;;;;;;;;16.90;98.60;;;;;;7338728;19;109167;-64
2023/04/13 13:05:39;;;;;;;;;;;17.00;98.60;;;;;;7335920;19;109156;-64
2023/04/13 13:08:07;;;;;;;;;;;17.10;98.10;;;;;;7338896;19;108476;-64
2023/04/13 13:10:35;;;;;;;;;;;17.20;98.40;;;;;;7337312;19;109205;-64
2023/04/13 13:13:02;;;;;;;;;;;17.40;98.20;;;;;;7335318;19;111652;-64
2023/04/13 13:15:30;;;;;;;;;;;17.50;97.20;;;;;;7343569;19;108546;-64
2023/04/13 13:18:01;;;;;;;;;;;17.60;97.60;;;;;;7337273;19;109227;-64
2023/04/13 13:20:29;;;;;;;;;;;17.70;98.20;;;;;;7335432;19;110232;-64
2023/04/13 13:22:56;;;;;;;;;;;17.80;95.60;;;;;;7334995;19;111047;-64
2023/04/13 13:25:23;;;;;;;;;;;17.80;96.60;;;;;;7338155;19;108702;-64
2023/04/13 13:27:51;;;;;;;;;;;17.90;95.70;;;;;;7335567;19;108835;-64
2023/04/13 13:30:21;;;;;;;;;;;17.90;95.20;;;;;;7338113;19;108725;-64
2023/04/13 13:32:48;;;;;;;;;;;18.00;95.90;;;;;;7338982;19;108813;-64
2023/04/13 13:35:15;;;;;;;;;;;18.10;94.90;;;;;;7336459;19;109198;-64
2023/04/13 13:37:42;;;;;;;;;;;18.20;95.10;;;;;;7342979;19;110165;-64
2023/04/13 13:40:12;;;;;;;;;;;18.20;95.60;;;;;;7337946;19;108850;-64
2023/04/13 13:42:40;;;;;;;;;;;18.20;95.10;;;;;;7336191;19;110134;-64
2023/04/13 13:45:17;;;;;;;;;;;18.30;95.40;;;;;;7337136;19;108677;-64
2023/04/13 13:47:52;;;;;;;;;;;18.30;92.90;;;;;;7339255;19;109094;-64
2023/04/13 13:50:22;;;;;;;;;;;18.30;95.50;;;;;;7334748;19;109620;-64
2023/04/13 13:52:50;;;;;;;;;;;18.30;95.40;;;;;;7338748;19;110936;-64
2023/04/13 13:55:29;;;;;;;;;;;18.40;95.50;;;;;;7336244;19;109379;-64
2023/04/13 13:57:57;;;;;;;;;;;18.40;95.40;;;;;;7338007;19;113435;-64
2023/04/13 14:00:24;;;;;;;;;;;18.40;95.20;;;;;;7341853;19;109494;-64
2023/04/13 14:02:51;;;;;;;;;;;18.40;92.80;;;;;;7337617;19;110818;-64
2023/04/13 14:05:20;;;;;;;;;;;18.40;94.10;;;;;;7335639;19;108620;-64
2023/04/13 14:07:47;;;;;;;;;;;18.40;92.50;;;;;;7335386;19;108227;-64
2023/04/13 14:10:14;;;;;;;;;;;18.30;93.10;;;;;;7336792;19;109456;-64
2023/04/13 14:12:43;;;;;;;;;;;18.20;92.70;;;;;;7337026;19;109000;-64
2023/04/13 14:15:11;;;;;;;;;;;18.00;92.30;;;;;;7336226;19;109434;-64
2023/04/13 14:17:38;;;;;;;;;;;17.80;93.70;;;;;;7334573;19;110853;-64
2023/04/13 14:20:08;;;;;;;;;;;18.00;92.10;;;;;;7341745;19;109549;-64
2023/04/13 14:22:35;;;;;;;;;;;18.00;92.90;;;;;;7336832;19;112355;-64
2023/04/13 14:25:03;;;;;;;;;;;18.20;92.40;;;;;;7335095;19;108622;-64
2023/04/13 14:27:32;;;;;;;;;;;18.40;92.30;;;;;;7336247;19;109712;-64